sensor_id;sensor_type;location;lat;lon;timestamp;P1;durP1;ratioP1;P2;durP2;ratioP2
3755;SDS011;1893;52.526;13.360;2022-12-05T00:00:30;144.40;;;45.00;;
3755;SDS011;1893;52.526;13.360;2022-12-05T00:02:56;149.13;;;47.77;;
3755;SDS011;1893;52.526;13.360;2022-12-05T00:05:21;156.17;;;47.90;;
3755;SDS011;1893;52.526;13.360;2022-12-05T00:07:47;146.20;;;46.97;;
3755;SDS011;1893;52.526;13.360;2022-12-05T00:10:13;141.10;;;44.77;;
3755;SDS011;1893;52.526;13.360;2022-12-05T00:12:39;152.10;;;46.03;;
3755;SDS011;1893;52.526;13.360;2022-12-05T00:15:05;139.33;;;44.80;;
3755;SDS011;1893;52.526;13.360;2022-12-05T00:17:33;147.40;;;45.50;;
3755;SDS011;1893;52.526;13.360;2022-12-05T00:19:59;141.50;;;45.20;;
3755;SDS011;1893;52.526;13.360;2022-12-05T00:22:24;140.90;;;44.90;;
3755;SDS011;1893;52.526;13.360;2022-12-05T00:24:51;144.03;;;45.77;;
3755;SDS011;1893;52.526;13.360;2022-12-05T00:27:16;151.23;;;45.77;;
3755;SDS011;1893;52.526;13.360;2022-12-05T00:29:42;157.30;;;48.70;;
3755;SDS011;1893;52.526;13.360;2022-12-05T00:32:07;139.47;;;45.97;;
3755;SDS011;1893;52.526;13.360;2022-12-05T00:34:33;170.57;;;50.60;;
3755;SDS011;1893;52.526;13.360;2022-12-05T00:36:58;149.37;;;46.33;;
3755;SDS011;1893;52.526;13.360;2022-12-05T00:39:24;150.93;;;48.00;;
3755;SDS011;1893;52.526;13.360;2022-12-05T00:41:50;138.27;;;44.87;;
3755;SDS011;1893;52.526;13.360;2022-12-05T00:44:15;152.50;;;47.03;;
3755;SDS011;1893;52.526;13.360;2022-12-05T00:46:42;165.43;;;50.90;;
3755;SDS011;1893;52.526;13.360;2022-12-05T00:49:09;150.00;;;48.70;;
3755;SDS011;1893;52.526;13.360;2022-12-05T00:51:39;132.60;;;43.20;;
3755;SDS011;1893;52.526;13.360;2022-12-05T00:54:07;149.20;;;46.23;;
3755;SDS011;1893;52.526;13.360;2022-12-05T00:56:35;153.60;;;45.70;;
3755;SDS011;1893;52.526;13.360;2022-12-05T00:59:01;132.70;;;46.10;;
3755;SDS011;1893;52.526;13.360;2022-12-05T01:01:30;139.57;;;45.13;;
3755;SDS011;1893;52.526;13.360;2022-12-05T01:04:05;129.20;;;45.13;;
3755;SDS011;1893;52.526;13.360;2022-12-05T01:06:32;156.43;;;45.03;;
3755;SDS011;1893;52.526;13.360;2022-12-05T01:08:57;138.13;;;45.80;;
3755;SDS011;1893;52.526;13.360;2022-12-05T01:11:24;153.20;;;45.00;;
3755;SDS011;1893;52.526;13.360;2022-12-05T01:13:51;160.17;;;46.80;;
3755;SDS011;1893;52.526;13.360;2022-12-05T01:16:21;153.83;;;47.03;;
3755;SDS011;1893;52.526;13.360;2022-12-05T01:18:52;131.97;;;44.30;;
3755;SDS011;1893;52.526;13.360;2022-12-05T01:21:18;151.13;;;46.73;;
3755;SDS011;1893;52.526;13.360;2022-12-05T01:23:44;145.37;;;45.73;;
3755;SDS011;1893;52.526;13.360;2022-12-05T01:26:11;156.63;;;48.47;;
3755;SDS011;1893;52.526;13.360;2022-12-05T01:28:38;167.47;;;49.60;;
3755;SDS011;1893;52.526;13.360;2022-12-05T01:31:05;154.53;;;47.97;;
3755;SDS011;1893;52.526;13.360;2022-12-05T01:33:41;160.70;;;48.20;;
3755;SDS011;1893;52.526;13.360;2022-12-05T01:36:09;151.27;;;47.70;;
3755;SDS011;1893;52.526;13.360;2022-12-05T01:38:37;133.00;;;43.77;;
3755;SDS011;1893;52.526;13.360;2022-12-05T01:41:07;146.00;;;45.97;;
3755;SDS011;1893;52.526;13.360;2022-12-05T01:43:56;153.73;;;48.60;;
3755;SDS011;1893;52.526;13.360;2022-12-05T01:49:14;145.43;;;45.77;;
3755;SDS011;1893;52.526;13.360;2022-12-05T01:51:43;151.37;;;48.40;;
3755;SDS011;1893;52.526;13.360;2022-12-05T01:54:10;145.90;;;45.97;;
3755;SDS011;1893;52.526;13.360;2022-12-05T01:56:38;138.13;;;44.00;;
3755;SDS011;1893;52.526;13.360;2022-12-05T01:59:06;134.90;;;44.23;;
3755;SDS011;1893;52.526;13.360;2022-12-05T02:01:35;136.03;;;43.80;;
3755;SDS011;1893;52.526;13.360;2022-12-05T02:04:01;148.27;;;47.70;;
3755;SDS011;1893;52.526;13.360;2022-12-05T02:06:28;149.23;;;48.27;;
3755;SDS011;1893;52.526;13.360;2022-12-05T02:11:48;158.97;;;47.60;;
3755;SDS011;1893;52.526;13.360;2022-12-05T02:17:17;149.93;;;48.17;;
3755;SDS011;1893;52.526;13.360;2022-12-05T02:30:57;135.27;;;41.10;;
3755;SDS011;1893;52.526;13.360;2022-12-05T02:33:34;145.50;;;42.00;;
3755;SDS011;1893;52.526;13.360;2022-12-05T02:36:55;162.37;;;44.67;;
3755;SDS011;1893;52.526;13.360;2022-12-05T02:39:23;168.13;;;46.73;;
3755;SDS011;1893;52.526;13.360;2022-12-05T02:44:38;137.27;;;43.73;;
3755;SDS011;1893;52.526;13.360;2022-12-05T02:47:05;124.60;;;42.87;;
3755;SDS011;1893;52.526;13.360;2022-12-05T02:49:34;134.47;;;43.87;;
3755;SDS011;1893;52.526;13.360;2022-12-05T02:52:01;133.20;;;45.33;;
3755;SDS011;1893;52.526;13.360;2022-12-05T02:54:30;139.93;;;43.10;;
3755;SDS011;1893;52.526;13.360;2022-12-05T02:57:01;138.97;;;44.80;;
3755;SDS011;1893;52.526;13.360;2022-12-05T02:59:28;142.77;;;44.53;;
3755;SDS011;1893;52.526;13.360;2022-12-05T03:01:54;148.37;;;44.00;;
3755;SDS011;1893;52.526;13.360;2022-12-05T03:04:20;126.67;;;44.03;;
3755;SDS011;1893;52.526;13.360;2022-12-05T03:07:06;134.67;;;42.47;;
3755;SDS011;1893;52.526;13.360;2022-12-05T03:09:36;135.97;;;44.97;;
3755;SDS011;1893;52.526;13.360;2022-12-05T03:12:06;131.77;;;41.10;;
3755;SDS011;1893;52.526;13.360;2022-12-05T03:14:47;122.30;;;41.10;;
3755;SDS011;1893;52.526;13.360;2022-12-05T03:17:22;125.83;;;41.83;;
3755;SDS011;1893;52.526;13.360;2022-12-05T03:19:55;107.47;;;38.73;;
3755;SDS011;1893;52.526;13.360;2022-12-05T03:22:43;120.43;;;37.97;;
3755;SDS011;1893;52.526;13.360;2022-12-05T03:25:15;110.83;;;38.50;;
3755;SDS011;1893;52.526;13.360;2022-12-05T03:30:31;100.10;;;38.17;;
3755;SDS011;1893;52.526;13.360;2022-12-05T03:33:03;92.63;;;34.10;;
3755;SDS011;1893;52.526;13.360;2022-12-05T03:38:20;93.03;;;34.93;;
3755;SDS011;1893;52.526;13.360;2022-12-05T03:40:52;90.70;;;33.57;;
3755;SDS011;1893;52.526;13.360;2022-12-05T03:43:36;88.93;;;31.67;;
3755;SDS011;1893;52.526;13.360;2022-12-05T03:46:26;89.63;;;33.83;;
3755;SDS011;1893;52.526;13.360;2022-12-05T03:52:16;94.07;;;33.70;;
3755;SDS011;1893;52.526;13.360;2022-12-05T03:54:55;89.00;;;33.97;;
3755;SDS011;1893;52.526;13.360;2022-12-05T04:00:22;80.17;;;32.03;;
3755;SDS011;1893;52.526;13.360;2022-12-05T04:02:51;86.87;;;34.60;;
3755;SDS011;1893;52.526;13.360;2022-12-05T04:05:34;88.83;;;32.60;;
3755;SDS011;1893;52.526;13.360;2022-12-05T04:08:32;92.40;;;32.27;;
3755;SDS011;1893;52.526;13.360;2022-12-05T04:11:00;83.23;;;32.50;;
3755;SDS011;1893;52.526;13.360;2022-12-05T04:13:37;91.90;;;33.03;;
3755;SDS011;1893;52.526;13.360;2022-12-05T04:16:24;109.90;;;34.47;;
3755;SDS011;1893;52.526;13.360;2022-12-05T04:21:44;89.17;;;33.33;;
3755;SDS011;1893;52.526;13.360;2022-12-05T04:24:18;88.83;;;33.50;;
3755;SDS011;1893;52.526;13.360;2022-12-05T04:27:21;100.07;;;32.87;;
3755;SDS011;1893;52.526;13.360;2022-12-05T04:32:29;86.63;;;32.47;;
3755;SDS011;1893;52.526;13.360;2022-12-05T04:35:06;90.73;;;33.17;;
3755;SDS011;1893;52.526;13.360;2022-12-05T04:37:37;85.40;;;33.60;;
3755;SDS011;1893;52.526;13.360;2022-12-05T04:40:08;87.80;;;32.23;;
3755;SDS011;1893;52.526;13.360;2022-12-05T04:42:43;85.43;;;31.80;;
3755;SDS011;1893;52.526;13.360;2022-12-05T04:45:12;81.90;;;33.17;;
3755;SDS011;1893;52.526;13.360;2022-12-05T04:47:43;91.80;;;36.37;;
3755;SDS011;1893;52.526;13.360;2022-12-05T04:50:15;82.60;;;30.90;;
3755;SDS011;1893;52.526;13.360;2022-12-05T04:52:44;92.67;;;33.10;;
3755;SDS011;1893;52.526;13.360;2022-12-05T04:55:14;88.67;;;34.20;;
3755;SDS011;1893;52.526;13.360;2022-12-05T04:57:48;76.43;;;31.20;;
3755;SDS011;1893;52.526;13.360;2022-12-05T05:00:26;80.20;;;29.90;;
3755;SDS011;1893;52.526;13.360;2022-12-05T05:03:03;86.53;;;29.50;;
3755;SDS011;1893;52.526;13.360;2022-12-05T05:05:37;74.93;;;28.90;;
3755;SDS011;1893;52.526;13.360;2022-12-05T05:08:04;76.63;;;31.43;;
3755;SDS011;1893;52.526;13.360;2022-12-05T05:10:43;67.37;;;28.07;;
3755;SDS011;1893;52.526;13.360;2022-12-05T05:13:33;73.70;;;28.80;;
3755;SDS011;1893;52.526;13.360;2022-12-05T05:15:59;70.97;;;29.27;;
3755;SDS011;1893;52.526;13.360;2022-12-05T05:18:24;72.00;;;29.43;;
3755;SDS011;1893;52.526;13.360;2022-12-05T05:20:50;72.10;;;29.37;;
3755;SDS011;1893;52.526;13.360;2022-12-05T05:23:15;70.33;;;26.63;;
3755;SDS011;1893;52.526;13.360;2022-12-05T05:25:41;72.23;;;28.03;;
3755;SDS011;1893;52.526;13.360;2022-12-05T05:28:06;64.30;;;26.90;;
3755;SDS011;1893;52.526;13.360;2022-12-05T05:30:32;68.27;;;26.70;;
3755;SDS011;1893;52.526;13.360;2022-12-05T05:32:58;62.93;;;27.60;;
3755;SDS011;1893;52.526;13.360;2022-12-05T05:35:24;62.30;;;26.37;;
3755;SDS011;1893;52.526;13.360;2022-12-05T05:37:50;62.83;;;25.53;;
3755;SDS011;1893;52.526;13.360;2022-12-05T05:40:15;69.07;;;27.43;;
3755;SDS011;1893;52.526;13.360;2022-12-05T05:42:45;59.97;;;26.07;;
3755;SDS011;1893;52.526;13.360;2022-12-05T05:45:12;57.43;;;23.20;;
3755;SDS011;1893;52.526;13.360;2022-12-05T05:47:39;61.23;;;26.50;;
3755;SDS011;1893;52.526;13.360;2022-12-05T05:50:05;54.43;;;25.37;;
3755;SDS011;1893;52.526;13.360;2022-12-05T05:52:32;60.73;;;24.47;;
3755;SDS011;1893;52.526;13.360;2022-12-05T05:54:59;57.40;;;23.30;;
3755;SDS011;1893;52.526;13.360;2022-12-05T05:57:25;50.10;;;21.77;;
3755;SDS011;1893;52.526;13.360;2022-12-05T05:59:50;48.53;;;22.13;;
3755;SDS011;1893;52.526;13.360;2022-12-05T06:02:16;57.60;;;24.63;;
3755;SDS011;1893;52.526;13.360;2022-12-05T06:04:42;47.23;;;19.40;;
3755;SDS011;1893;52.526;13.360;2022-12-05T06:07:07;45.13;;;20.87;;
3755;SDS011;1893;52.526;13.360;2022-12-05T06:09:33;41.70;;;19.87;;
3755;SDS011;1893;52.526;13.360;2022-12-05T06:11:58;36.97;;;18.20;;
3755;SDS011;1893;52.526;13.360;2022-12-05T06:14:24;45.43;;;20.10;;
3755;SDS011;1893;52.526;13.360;2022-12-05T06:16:49;43.40;;;19.10;;
3755;SDS011;1893;52.526;13.360;2022-12-05T06:19:15;38.67;;;17.53;;
3755;SDS011;1893;52.526;13.360;2022-12-05T06:21:41;34.67;;;17.50;;
3755;SDS011;1893;52.526;13.360;2022-12-05T06:24:06;42.60;;;18.13;;
3755;SDS011;1893;52.526;13.360;2022-12-05T06:26:32;40.20;;;19.07;;
3755;SDS011;1893;52.526;13.360;2022-12-05T06:28:58;37.23;;;17.30;;
3755;SDS011;1893;52.526;13.360;2022-12-05T06:31:23;37.33;;;17.17;;
3755;SDS011;1893;52.526;13.360;2022-12-05T06:33:58;35.63;;;16.60;;
3755;SDS011;1893;52.526;13.360;2022-12-05T06:36:25;34.63;;;17.73;;
3755;SDS011;1893;52.526;13.360;2022-12-05T06:38:51;34.07;;;18.30;;
3755;SDS011;1893;52.526;13.360;2022-12-05T06:41:17;39.70;;;18.20;;
3755;SDS011;1893;52.526;13.360;2022-12-05T06:43:44;38.37;;;17.83;;
3755;SDS011;1893;52.526;13.360;2022-12-05T06:46:11;35.67;;;16.80;;
3755;SDS011;1893;52.526;13.360;2022-12-05T06:48:38;33.27;;;17.90;;
3755;SDS011;1893;52.526;13.360;2022-12-05T06:51:04;35.27;;;18.27;;
3755;SDS011;1893;52.526;13.360;2022-12-05T06:53:33;38.30;;;18.33;;
3755;SDS011;1893;52.526;13.360;2022-12-05T06:55:59;38.80;;;18.63;;
3755;SDS011;1893;52.526;13.360;2022-12-05T06:58:26;37.13;;;18.00;;
3755;SDS011;1893;52.526;13.360;2022-12-05T07:00:53;30.77;;;17.53;;
3755;SDS011;1893;52.526;13.360;2022-12-05T07:03:37;39.53;;;18.57;;
3755;SDS011;1893;52.526;13.360;2022-12-05T07:06:04;40.07;;;19.77;;
3755;SDS011;1893;52.526;13.360;2022-12-05T07:08:31;39.30;;;20.60;;
3755;SDS011;1893;52.526;13.360;2022-12-05T07:10:57;38.47;;;18.50;;
3755;SDS011;1893;52.526;13.360;2022-12-05T07:13:23;33.30;;;17.37;;
3755;SDS011;1893;52.526;13.360;2022-12-05T07:15:49;47.67;;;17.80;;
3755;SDS011;1893;52.526;13.360;2022-12-05T07:18:16;38.13;;;19.37;;
3755;SDS011;1893;52.526;13.360;2022-12-05T07:20:42;45.17;;;20.60;;
3755;SDS011;1893;52.526;13.360;2022-12-05T07:23:08;38.73;;;18.43;;
3755;SDS011;1893;52.526;13.360;2022-12-05T07:25:38;37.30;;;19.30;;
3755;SDS011;1893;52.526;13.360;2022-12-05T07:28:05;43.17;;;19.40;;
3755;SDS011;1893;52.526;13.360;2022-12-05T07:30:31;39.43;;;18.80;;
3755;SDS011;1893;52.526;13.360;2022-12-05T07:32:57;42.13;;;18.63;;
3755;SDS011;1893;52.526;13.360;2022-12-05T07:35:22;38.27;;;19.87;;
3755;SDS011;1893;52.526;13.360;2022-12-05T07:37:48;42.63;;;22.27;;
3755;SDS011;1893;52.526;13.360;2022-12-05T07:40:14;40.60;;;19.13;;
3755;SDS011;1893;52.526;13.360;2022-12-05T07:42:39;47.00;;;20.10;;
3755;SDS011;1893;52.526;13.360;2022-12-05T07:45:05;42.47;;;19.30;;
3755;SDS011;1893;52.526;13.360;2022-12-05T07:47:32;41.90;;;19.70;;
3755;SDS011;1893;52.526;13.360;2022-12-05T07:49:58;35.33;;;18.80;;
3755;SDS011;1893;52.526;13.360;2022-12-05T07:52:23;42.67;;;20.10;;
3755;SDS011;1893;52.526;13.360;2022-12-05T07:54:49;38.07;;;19.80;;
3755;SDS011;1893;52.526;13.360;2022-12-05T07:57:15;41.77;;;20.90;;
3755;SDS011;1893;52.526;13.360;2022-12-05T07:59:40;42.33;;;20.50;;
3755;SDS011;1893;52.526;13.360;2022-12-05T08:02:07;36.43;;;17.87;;
3755;SDS011;1893;52.526;13.360;2022-12-05T08:04:32;39.03;;;17.23;;
3755;SDS011;1893;52.526;13.360;2022-12-05T08:06:58;37.40;;;16.33;;
3755;SDS011;1893;52.526;13.360;2022-12-05T08:09:24;37.03;;;17.43;;
3755;SDS011;1893;52.526;13.360;2022-12-05T08:11:50;33.43;;;15.83;;
3755;SDS011;1893;52.526;13.360;2022-12-05T08:14:15;34.83;;;16.97;;
3755;SDS011;1893;52.526;13.360;2022-12-05T08:16:41;34.53;;;17.70;;
3755;SDS011;1893;52.526;13.360;2022-12-05T08:19:07;34.30;;;16.50;;
3755;SDS011;1893;52.526;13.360;2022-12-05T08:21:36;33.70;;;17.10;;
3755;SDS011;1893;52.526;13.360;2022-12-05T08:24:05;33.80;;;17.77;;
3755;SDS011;1893;52.526;13.360;2022-12-05T08:26:32;34.00;;;17.00;;
3755;SDS011;1893;52.526;13.360;2022-12-05T08:29:00;38.97;;;17.20;;
3755;SDS011;1893;52.526;13.360;2022-12-05T08:31:28;42.33;;;17.70;;
3755;SDS011;1893;52.526;13.360;2022-12-05T08:33:56;35.00;;;16.90;;
3755;SDS011;1893;52.526;13.360;2022-12-05T08:36:23;39.67;;;17.90;;
3755;SDS011;1893;52.526;13.360;2022-12-05T08:38:48;33.20;;;17.00;;
3755;SDS011;1893;52.526;13.360;2022-12-05T08:41:15;34.00;;;18.33;;
3755;SDS011;1893;52.526;13.360;2022-12-05T08:43:41;32.03;;;17.60;;
3755;SDS011;1893;52.526;13.360;2022-12-05T08:46:08;37.47;;;18.47;;
3755;SDS011;1893;52.526;13.360;2022-12-05T08:48:34;35.33;;;18.47;;
3755;SDS011;1893;52.526;13.360;2022-12-05T08:51:03;45.37;;;20.17;;
3755;SDS011;1893;52.526;13.360;2022-12-05T08:53:35;45.37;;;20.83;;
3755;SDS011;1893;52.526;13.360;2022-12-05T08:56:02;37.80;;;18.60;;
3755;SDS011;1893;52.526;13.360;2022-12-05T08:58:29;37.17;;;18.17;;
3755;SDS011;1893;52.526;13.360;2022-12-05T09:01:04;47.23;;;20.20;;
3755;SDS011;1893;52.526;13.360;2022-12-05T09:03:32;44.07;;;18.77;;
3755;SDS011;1893;52.526;13.360;2022-12-05T09:06:04;33.83;;;17.97;;
3755;SDS011;1893;52.526;13.360;2022-12-05T09:08:35;37.10;;;17.73;;
3755;SDS011;1893;52.526;13.360;2022-12-05T09:11:11;38.90;;;18.13;;
3755;SDS011;1893;52.526;13.360;2022-12-05T09:13:41;36.63;;;18.27;;
3755;SDS011;1893;52.526;13.360;2022-12-05T09:16:11;34.60;;;18.30;;
3755;SDS011;1893;52.526;13.360;2022-12-05T09:18:39;39.87;;;17.37;;
3755;SDS011;1893;52.526;13.360;2022-12-05T09:21:09;38.73;;;17.80;;
3755;SDS011;1893;52.526;13.360;2022-12-05T09:23:39;41.47;;;17.70;;
3755;SDS011;1893;52.526;13.360;2022-12-05T09:26:05;36.77;;;17.53;;
3755;SDS011;1893;52.526;13.360;2022-12-05T09:28:33;29.13;;;15.40;;
3755;SDS011;1893;52.526;13.360;2022-12-05T09:31:00;35.23;;;17.47;;
3755;SDS011;1893;52.526;13.360;2022-12-05T09:33:28;33.03;;;17.67;;
3755;SDS011;1893;52.526;13.360;2022-12-05T09:35:56;33.70;;;16.97;;
3755;SDS011;1893;52.526;13.360;2022-12-05T09:38:22;31.83;;;16.30;;
3755;SDS011;1893;52.526;13.360;2022-12-05T09:40:59;34.13;;;17.30;;
3755;SDS011;1893;52.526;13.360;2022-12-05T09:44:02;35.47;;;18.20;;
3755;SDS011;1893;52.526;13.360;2022-12-05T09:46:41;36.07;;;13.63;;
3755;SDS011;1893;52.526;13.360;2022-12-05T09:49:16;37.27;;;18.23;;
3755;SDS011;1893;52.526;13.360;2022-12-05T09:51:42;35.70;;;17.60;;
3755;SDS011;1893;52.526;13.360;2022-12-05T09:54:10;45.13;;;18.93;;
3755;SDS011;1893;52.526;13.360;2022-12-05T09:56:38;33.00;;;15.70;;
3755;SDS011;1893;52.526;13.360;2022-12-05T09:59:08;35.00;;;17.70;;
3755;SDS011;1893;52.526;13.360;2022-12-05T10:12:50;35.47;;;14.80;;
3755;SDS011;1893;52.526;13.360;2022-12-05T10:17:58;32.60;;;15.43;;
3755;SDS011;1893;52.526;13.360;2022-12-05T10:20:40;36.63;;;17.30;;
3755;SDS011;1893;52.526;13.360;2022-12-05T10:23:35;35.63;;;16.37;;
3755;SDS011;1893;52.526;13.360;2022-12-05T10:26:13;33.33;;;17.67;;
3755;SDS011;1893;52.526;13.360;2022-12-05T10:28:41;35.23;;;16.97;;
3755;SDS011;1893;52.526;13.360;2022-12-05T10:31:14;43.27;;;23.33;;
3755;SDS011;1893;52.526;13.360;2022-12-05T10:33:45;38.40;;;17.07;;
3755;SDS011;1893;52.526;13.360;2022-12-05T10:36:14;37.80;;;18.00;;
3755;SDS011;1893;52.526;13.360;2022-12-05T10:38:40;41.33;;;18.50;;
3755;SDS011;1893;52.526;13.360;2022-12-05T10:41:09;31.40;;;16.60;;
3755;SDS011;1893;52.526;13.360;2022-12-05T10:43:38;31.87;;;16.80;;
3755;SDS011;1893;52.526;13.360;2022-12-05T10:46:06;31.37;;;15.67;;
3755;SDS011;1893;52.526;13.360;2022-12-05T10:48:34;30.80;;;15.60;;
3755;SDS011;1893;52.526;13.360;2022-12-05T10:51:05;30.43;;;16.30;;
3755;SDS011;1893;52.526;13.360;2022-12-05T10:53:39;35.80;;;17.20;;
3755;SDS011;1893;52.526;13.360;2022-12-05T10:56:54;37.77;;;18.73;;
3755;SDS011;1893;52.526;13.360;2022-12-05T10:59:01;35.43;;;17.53;;
3755;SDS011;1893;52.526;13.360;2022-12-05T11:01:27;34.93;;;16.60;;
3755;SDS011;1893;52.526;13.360;2022-12-05T11:03:57;33.40;;;16.50;;
3755;SDS011;1893;52.526;13.360;2022-12-05T11:06:26;35.43;;;16.87;;
3755;SDS011;1893;52.526;13.360;2022-12-05T11:08:55;27.90;;;15.97;;
3755;SDS011;1893;52.526;13.360;2022-12-05T11:11:23;34.60;;;17.23;;
3755;SDS011;1893;52.526;13.360;2022-12-05T11:14:01;39.53;;;18.40;;
3755;SDS011;1893;52.526;13.360;2022-12-05T11:16:32;37.00;;;17.87;;
3755;SDS011;1893;52.526;13.360;2022-12-05T11:21:47;44.17;;;18.97;;
3755;SDS011;1893;52.526;13.360;2022-12-05T11:24:20;38.80;;;18.50;;
3755;SDS011;1893;52.526;13.360;2022-12-05T11:26:46;33.67;;;18.20;;
3755;SDS011;1893;52.526;13.360;2022-12-05T11:32:01;35.33;;;18.93;;
3755;SDS011;1893;52.526;13.360;2022-12-05T11:34:52;32.87;;;17.13;;
3755;SDS011;1893;52.526;13.360;2022-12-05T11:37:28;33.57;;;18.30;;
3755;SDS011;1893;52.526;13.360;2022-12-05T11:40:04;37.60;;;18.50;;
3755;SDS011;1893;52.526;13.360;2022-12-05T11:42:43;38.27;;;20.20;;
3755;SDS011;1893;52.526;13.360;2022-12-05T11:45:39;37.63;;;19.27;;
3755;SDS011;1893;52.526;13.360;2022-12-05T11:50:53;33.50;;;17.73;;
3755;SDS011;1893;52.526;13.360;2022-12-05T11:59:02;38.77;;;18.70;;
3755;SDS011;1893;52.526;13.360;2022-12-05T12:07:55;42.93;;;18.70;;
3755;SDS011;1893;52.526;13.360;2022-12-05T12:10:47;39.00;;;19.50;;
3755;SDS011;1893;52.526;13.360;2022-12-05T12:13:27;43.07;;;20.97;;
3755;SDS011;1893;52.526;13.360;2022-12-05T12:15:57;40.27;;;19.40;;
3755;SDS011;1893;52.526;13.360;2022-12-05T12:21:22;38.70;;;18.97;;
3755;SDS011;1893;52.526;13.360;2022-12-05T12:40:47;42.17;;;21.10;;
3755;SDS011;1893;52.526;13.360;2022-12-05T12:46:19;44.00;;;21.97;;
3755;SDS011;1893;52.526;13.360;2022-12-05T12:51:43;46.40;;;22.03;;
3755;SDS011;1893;52.526;13.360;2022-12-05T13:02:40;49.23;;;22.30;;
3755;SDS011;1893;52.526;13.360;2022-12-05T13:05:14;56.60;;;23.60;;
3755;SDS011;1893;52.526;13.360;2022-12-05T13:08:03;47.10;;;24.53;;
3755;SDS011;1893;52.526;13.360;2022-12-05T13:10:40;53.47;;;22.73;;
3755;SDS011;1893;52.526;13.360;2022-12-05T13:13:10;54.90;;;24.83;;
3755;SDS011;1893;52.526;13.360;2022-12-05T13:15:50;52.83;;;24.67;;
3755;SDS011;1893;52.526;13.360;2022-12-05T13:18:20;54.00;;;25.23;;
3755;SDS011;1893;52.526;13.360;2022-12-05T13:20:49;67.37;;;26.97;;
3755;SDS011;1893;52.526;13.360;2022-12-05T13:23:27;55.43;;;26.83;;
3755;SDS011;1893;52.526;13.360;2022-12-05T13:25:57;58.07;;;23.97;;
3755;SDS011;1893;52.526;13.360;2022-12-05T13:28:29;61.67;;;26.63;;
3755;SDS011;1893;52.526;13.360;2022-12-05T13:31:01;63.93;;;26.30;;
3755;SDS011;1893;52.526;13.360;2022-12-05T13:33:30;52.10;;;25.40;;
3755;SDS011;1893;52.526;13.360;2022-12-05T13:36:20;55.77;;;24.23;;
3755;SDS011;1893;52.526;13.360;2022-12-05T13:39:06;73.73;;;28.70;;
3755;SDS011;1893;52.526;13.360;2022-12-05T13:42:04;60.60;;;27.03;;
3755;SDS011;1893;52.526;13.360;2022-12-05T13:44:52;63.93;;;27.53;;
3755;SDS011;1893;52.526;13.360;2022-12-05T13:50:24;71.87;;;29.20;;
3755;SDS011;1893;52.526;13.360;2022-12-05T14:09:00;70.50;;;30.77;;
3755;SDS011;1893;52.526;13.360;2022-12-05T14:11:27;68.60;;;29.03;;
3755;SDS011;1893;52.526;13.360;2022-12-05T14:13:52;80.17;;;29.00;;
3755;SDS011;1893;52.526;13.360;2022-12-05T14:18:54;67.60;;;28.57;;
3755;SDS011;1893;52.526;13.360;2022-12-05T14:32:31;82.37;;;31.17;;
3755;SDS011;1893;52.526;13.360;2022-12-05T14:42:55;89.73;;;31.53;;
3755;SDS011;1893;52.526;13.360;2022-12-05T14:56:09;85.90;;;33.17;;
3755;SDS011;1893;52.526;13.360;2022-12-05T14:58:38;81.20;;;32.90;;
3755;SDS011;1893;52.526;13.360;2022-12-05T15:01:22;87.97;;;32.37;;
3755;SDS011;1893;52.526;13.360;2022-12-05T15:06:22;85.17;;;33.87;;
3755;SDS011;1893;52.526;13.360;2022-12-05T15:08:50;96.70;;;32.83;;
3755;SDS011;1893;52.526;13.360;2022-12-05T15:11:21;87.90;;;35.10;;
3755;SDS011;1893;52.526;13.360;2022-12-05T15:14:38;108.70;;;33.67;;
3755;SDS011;1893;52.526;13.360;2022-12-05T15:16:44;87.43;;;33.80;;
3755;SDS011;1893;52.526;13.360;2022-12-05T15:19:14;81.47;;;31.50;;
3755;SDS011;1893;52.526;13.360;2022-12-05T15:21:54;100.00;;;34.70;;
3755;SDS011;1893;52.526;13.360;2022-12-05T15:24:22;100.67;;;35.27;;
3755;SDS011;1893;52.526;13.360;2022-12-05T15:26:57;85.30;;;34.03;;
3755;SDS011;1893;52.526;13.360;2022-12-05T15:29:28;102.23;;;35.67;;
3755;SDS011;1893;52.526;13.360;2022-12-05T15:34:25;95.97;;;33.87;;
3755;SDS011;1893;52.526;13.360;2022-12-05T15:37:03;102.70;;;33.37;;
3755;SDS011;1893;52.526;13.360;2022-12-05T15:39:48;101.33;;;34.97;;
3755;SDS011;1893;52.526;13.360;2022-12-05T15:42:16;92.73;;;31.80;;
3755;SDS011;1893;52.526;13.360;2022-12-05T15:44:42;100.50;;;34.90;;
3755;SDS011;1893;52.526;13.360;2022-12-05T15:47:21;114.17;;;34.90;;
3755;SDS011;1893;52.526;13.360;2022-12-05T15:49:48;102.30;;;32.80;;
3755;SDS011;1893;52.526;13.360;2022-12-05T15:52:30;97.93;;;32.67;;
3755;SDS011;1893;52.526;13.360;2022-12-05T15:55:22;100.13;;;31.90;;
3755;SDS011;1893;52.526;13.360;2022-12-05T15:57:59;103.07;;;33.13;;
3755;SDS011;1893;52.526;13.360;2022-12-05T16:00:29;108.57;;;36.80;;
3755;SDS011;1893;52.526;13.360;2022-12-05T16:03:07;112.43;;;37.30;;
3755;SDS011;1893;52.526;13.360;2022-12-05T16:05:46;134.27;;;36.40;;
3755;SDS011;1893;52.526;13.360;2022-12-05T16:08:19;118.70;;;37.50;;
3755;SDS011;1893;52.526;13.360;2022-12-05T16:10:48;106.67;;;39.30;;
3755;SDS011;1893;52.526;13.360;2022-12-05T16:13:14;134.73;;;38.50;;
3755;SDS011;1893;52.526;13.360;2022-12-05T16:15:46;113.87;;;37.30;;
3755;SDS011;1893;52.526;13.360;2022-12-05T16:18:25;113.43;;;35.07;;
3755;SDS011;1893;52.526;13.360;2022-12-05T16:20:53;127.53;;;35.17;;
3755;SDS011;1893;52.526;13.360;2022-12-05T16:23:29;118.40;;;36.67;;
3755;SDS011;1893;52.526;13.360;2022-12-05T16:26:30;124.27;;;37.20;;
3755;SDS011;1893;52.526;13.360;2022-12-05T16:28:58;107.20;;;36.20;;
3755;SDS011;1893;52.526;13.360;2022-12-05T16:31:26;107.63;;;33.13;;
3755;SDS011;1893;52.526;13.360;2022-12-05T16:34:03;106.30;;;33.40;;
3755;SDS011;1893;52.526;13.360;2022-12-05T16:36:31;119.07;;;34.60;;
3755;SDS011;1893;52.526;13.360;2022-12-05T16:39:11;115.00;;;34.20;;
3755;SDS011;1893;52.526;13.360;2022-12-05T16:41:38;138.90;;;37.30;;
3755;SDS011;1893;52.526;13.360;2022-12-05T16:44:05;132.73;;;39.70;;
3755;SDS011;1893;52.526;13.360;2022-12-05T16:46:53;141.30;;;37.97;;
3755;SDS011;1893;52.526;13.360;2022-12-05T16:49:30;126.00;;;35.50;;
3755;SDS011;1893;52.526;13.360;2022-12-05T16:52:01;116.93;;;36.83;;
3755;SDS011;1893;52.526;13.360;2022-12-05T16:54:38;127.53;;;34.90;;
3755;SDS011;1893;52.526;13.360;2022-12-05T16:57:04;125.90;;;38.50;;
3755;SDS011;1893;52.526;13.360;2022-12-05T16:59:36;143.90;;;39.43;;
3755;SDS011;1893;52.526;13.360;2022-12-05T17:02:09;158.63;;;36.57;;
3755;SDS011;1893;52.526;13.360;2022-12-05T17:04:37;104.10;;;32.97;;
3755;SDS011;1893;52.526;13.360;2022-12-05T17:07:03;83.67;;;27.63;;
3755;SDS011;1893;52.526;13.360;2022-12-05T17:09:28;87.87;;;29.63;;
3755;SDS011;1893;52.526;13.360;2022-12-05T17:11:57;103.60;;;30.37;;
3755;SDS011;1893;52.526;13.360;2022-12-05T17:14:28;105.67;;;32.60;;
3755;SDS011;1893;52.526;13.360;2022-12-05T17:16:53;134.57;;;36.07;;
3755;SDS011;1893;52.526;13.360;2022-12-05T17:19:19;118.67;;;35.27;;
3755;SDS011;1893;52.526;13.360;2022-12-05T17:21:44;181.97;;;41.97;;
3755;SDS011;1893;52.526;13.360;2022-12-05T17:24:17;117.60;;;35.90;;
3755;SDS011;1893;52.526;13.360;2022-12-05T17:26:43;128.83;;;37.57;;
3755;SDS011;1893;52.526;13.360;2022-12-05T17:29:10;137.67;;;38.10;;
3755;SDS011;1893;52.526;13.360;2022-12-05T17:31:36;144.03;;;37.97;;
3755;SDS011;1893;52.526;13.360;2022-12-05T17:34:02;118.10;;;35.90;;
3755;SDS011;1893;52.526;13.360;2022-12-05T17:36:39;127.13;;;35.93;;